Time;durP1;ratioP1;P1;durP2;ratioP2;P2;SDS_P1;SDS_P2;PMS_P1;PMS_P2;Temp;Humidity;BMP_temperature;BMP_pressure;BME280_temperature;BME280_humidity;BME280_pressure;Samples;Min_cycle;Max_cycle;Signal;HPM_P1;HPM_P2
2023/02/23 00:01:20;;;;;;;73.75;23.20;;;6.70;99.90;;;;;;5027058;28;20556;-77
2023/02/23 00:03:50;;;;;;;76.28;23.58;;;6.70;99.90;;;;;;5031560;28;20022;-77
2023/02/23 00:06:17;;;;;;;80.32;24.05;;;6.70;99.90;;;;;;5037821;28;20033;-77
2023/02/23 00:08:43;;;;;;;72.72;24.02;;;6.70;99.90;;;;;;5045164;28;20029;-77
2023/02/23 00:11:13;;;;;;;74.20;22.30;;;6.70;99.90;;;;;;5016613;28;20143;-77
2023/02/23 00:13:40;;;;;;;79.20;23.25;;;6.70;99.90;;;;;;5025894;28;20029;-77
2023/02/23 00:16:15;;;;;;;81.18;24.55;;;6.70;99.90;;;;;;5033830;28;20422;-77
2023/02/23 00:18:49;;;;;;;81.80;24.45;;;6.70;99.90;;;;;;5013209;28;20125;-77
2023/02/23 00:21:22;;;;;;;73.88;23.95;;;6.70;99.90;;;;;;5027849;28;20037;-77
2023/02/23 00:23:50;;;;;;;72.75;24.10;;;6.70;99.90;;;;;;5027660;28;20025;-77
2023/02/23 00:26:19;;;;;;;82.53;24.40;;;6.60;99.90;;;;;;5018283;28;20034;-77
2023/02/23 00:28:46;;;;;;;72.35;22.95;;;6.60;99.90;;;;;;5031711;28;20048;-77
2023/02/23 00:31:12;;;;;;;81.72;24.00;;;6.60;99.90;;;;;;5036623;28;20041;-77
2023/02/23 00:33:39;;;;;;;81.78;24.05;;;6.60;99.90;;;;;;5030332;28;20041;-77
2023/02/23 00:36:07;;;;;;;84.43;24.50;;;6.50;99.90;;;;;;5040723;28;20464;-77
2023/02/23 00:38:35;;;;;;;88.10;23.90;;;6.50;99.90;;;;;;5025695;28;20133;-77
2023/02/23 00:41:10;;;;;;;83.20;23.42;;;6.50;99.90;;;;;;5041134;28;20079;-77
2023/02/23 00:43:37;;;;;;;73.20;22.20;;;6.50;99.90;;;;;;5028172;28;20040;-77
2023/02/23 00:46:04;;;;;;;94.18;24.15;;;6.60;99.90;;;;;;5033932;28;20080;-77
2023/02/23 00:48:34;;;;;;;95.53;24.60;;;6.50;99.90;;;;;;5045585;28;20539;-77
2023/02/23 00:51:04;;;;;;;90.10;24.80;;;6.50;99.90;;;;;;5035105;28;20049;-77
2023/02/23 00:53:30;;;;;;;92.82;23.73;;;6.50;99.90;;;;;;5029990;28;20037;-77
2023/02/23 00:55:56;;;;;;;90.18;22.45;;;6.40;99.90;;;;;;5024027;28;20422;-77
2023/02/23 00:58:23;;;;;;;84.57;23.77;;;6.30;99.90;;;;;;5031916;28;20116;-77
2023/02/23 01:00:48;;;;;;;84.03;24.05;;;6.30;99.90;;;;;;5027860;28;20367;-77
2023/02/23 01:03:14;;;;;;;87.63;23.83;;;6.20;99.90;;;;;;5033626;28;20040;-77
2023/02/23 01:05:39;;;;;;;84.95;22.73;;;6.20;99.90;;;;;;5040848;28;20043;-77
2023/02/23 01:08:08;;;;;;;89.25;24.75;;;6.10;99.90;;;;;;5038785;28;20038;-77
2023/02/23 01:10:38;;;;;;;89.55;24.67;;;6.20;99.90;;;;;;5031685;28;20026;-77
2023/02/23 01:13:04;;;;;;;88.75;23.95;;;6.30;99.90;;;;;;5036846;28;20107;-77
2023/02/23 01:15:31;;;;;;;94.22;24.15;;;6.20;99.90;;;;;;5034769;28;20029;-77
2023/02/23 01:17:56;;;;;;;87.72;24.13;;;6.20;99.90;;;;;;5030105;28;20029;-77
2023/02/23 01:20:22;;;;;;;89.13;24.63;;;6.20;99.90;;;;;;5037772;28;20040;-77
2023/02/23 01:22:50;;;;;;;97.07;23.95;;;6.30;99.90;;;;;;5028108;28;20044;-77
2023/02/23 01:25:17;;;;;;;87.68;23.65;;;6.20;99.90;;;;;;5036100;28;20030;-77
2023/02/23 01:27:43;;;;;;;102.35;25.80;;;6.30;99.90;;;;;;5029281;28;20092;-77
2023/02/23 01:30:11;;;;;;;101.97;24.95;;;6.30;99.90;;;;;;5047686;28;20111;-77
2023/02/23 01:32:37;;;;;;;93.40;26.27;;;6.30;99.90;;;;;;5038433;28;20036;-77
2023/02/23 01:35:12;;;;;;;104.18;26.85;;;6.20;99.90;;;;;;5036231;28;20461;-77
2023/02/23 01:37:40;;;;;;;101.93;26.02;;;6.20;99.90;;;;;;5042897;28;20025;-77
2023/02/23 01:40:12;;;;;;;106.32;25.52;;;6.30;99.90;;;;;;5038024;28;20588;-77
2023/02/23 01:42:38;;;;;;;103.65;24.92;;;6.20;99.90;;;;;;5026495;28;20029;-77
2023/02/23 01:45:33;;;;;;;102.85;26.63;;;6.20;99.90;;;;;;5032133;28;20034;-77
2023/02/23 01:48:05;;;;;;;97.88;24.95;;;6.20;99.90;;;;;;5027424;28;20539;-77
2023/02/23 01:50:37;;;;;;;102.20;24.80;;;6.10;99.90;;;;;;5040142;28;20123;-77
2023/02/23 01:53:04;;;;;;;96.93;23.92;;;6.10;99.90;;;;;;5032643;28;20100;-77
2023/02/23 01:55:29;;;;;;;99.55;24.25;;;6.10;99.90;;;;;;5029767;28;20112;-77
2023/02/23 01:58:03;;;;;;;96.57;24.25;;;6.10;99.90;;;;;;5039953;28;20108;-77
2023/02/23 02:00:30;;;;;;;88.78;24.63;;;6.10;99.90;;;;;;5028574;28;20133;-77
2023/02/23 02:02:58;;;;;;;90.07;24.73;;;6.10;99.90;;;;;;5042268;28;20466;-77
2023/02/23 02:05:24;;;;;;;103.93;23.95;;;6.00;99.90;;;;;;5046300;28;20028;-77
2023/02/23 02:07:57;;;;;;;96.03;24.63;;;6.00;99.90;;;;;;5035483;28;20032;-77
2023/02/23 02:10:38;;;;;;;90.93;23.33;;;6.00;99.90;;;;;;5035727;28;20429;-77
2023/02/23 02:13:05;;;;;;;102.68;23.85;;;6.00;99.90;;;;;;5040430;28;20025;-77
2023/02/23 02:15:37;;;;;;;100.57;24.70;;;6.00;99.90;;;;;;5034321;28;20056;-77
2023/02/23 02:18:29;;;;;;;94.47;23.08;;;5.90;99.90;;;;;;5037389;28;20124;-77
2023/02/23 02:21:22;;;;;;;97.65;22.73;;;5.80;99.90;;;;;;5038828;28;20481;-77
2023/02/23 02:24:03;;;;;;;88.68;23.15;;;5.80;99.90;;;;;;5037458;28;20555;-77
2023/02/23 02:26:59;;;;;;;93.35;23.60;;;5.80;99.90;;;;;;5033527;28;20054;-77
2023/02/23 02:30:02;;;;;;;86.60;22.23;;;5.70;99.90;;;;;;5034528;28;20492;-77
2023/02/23 02:33:02;;;;;;;100.30;23.15;;;5.60;99.90;;;;;;5030724;28;20120;-77
2023/02/23 02:35:30;;;;;;;76.72;21.60;;;5.60;99.90;;;;;;5036227;28;20056;-77
2023/02/23 02:38:18;;;;;;;115.07;22.13;;;5.50;99.90;;;;;;5041647;28;20032;-77
2023/02/23 02:41:18;;;;;;;103.07;21.58;;;5.40;99.90;;;;;;5033905;28;20029;-77
2023/02/23 02:43:57;;;;;;;94.97;22.80;;;5.40;99.90;;;;;;5035557;28;20119;-77
2023/02/23 02:46:28;;;;;;;85.40;21.83;;;5.30;99.90;;;;;;5019346;28;20042;-77
2023/02/23 02:49:12;;;;;;;85.57;21.40;;;5.30;99.90;;;;;;5031082;28;20037;-77
2023/02/23 02:51:55;;;;;;;86.20;22.85;;;5.20;99.90;;;;;;5030858;28;20029;-77
2023/02/23 02:54:31;;;;;;;101.65;22.23;;;5.20;99.90;;;;;;5026928;28;20475;-77
2023/02/23 02:57:01;;;;;;;100.65;23.95;;;5.30;99.90;;;;;;5030048;28;20116;-77
2023/02/23 04:19:55;;;;;;;172.25;34.38;;;5.80;99.90;;;;;;5032036;28;20481;-77
2023/02/23 04:22:22;;;;;;;157.18;34.28;;;5.80;99.90;;;;;;5026912;28;20166;-77
2023/02/23 04:24:49;;;;;;;188.55;34.72;;;5.90;99.90;;;;;;5031881;28;20042;-77
2023/02/23 04:27:15;;;;;;;176.98;35.95;;;5.80;99.90;;;;;;5032828;28;20032;-77
2023/02/23 04:29:42;;;;;;;183.27;35.50;;;5.80;99.90;;;;;;5028821;28;20045;-77
2023/02/23 04:32:13;;;;;;;189.68;36.47;;;5.80;99.90;;;;;;5032809;28;20025;-77
2023/02/23 04:34:38;;;;;;;;;;;5.80;99.90;;;;;;5040781;28;20025;-77
2023/02/23 04:37:03;;;;;;;192.00;31.83;;;5.80;99.90;;;;;;5030345;28;19915;-77
2023/02/23 04:39:29;;;;;;;247.02;34.80;;;5.80;99.90;;;;;;5032264;28;20388;-77
2023/02/23 04:41:54;;;;;;;285.70;36.95;;;5.80;99.90;;;;;;5028815;28;20060;-77
2023/02/23 04:44:20;;;;;;;252.77;36.00;;;5.80;99.90;;;;;;5028509;28;20033;-77
2023/02/23 04:46:45;;;;;;;311.50;38.70;;;5.80;99.90;;;;;;5027910;28;20474;-77
2023/02/23 04:49:11;;;;;;;285.85;40.35;;;5.80;99.90;;;;;;5034018;28;20140;-77
2023/02/23 04:51:36;;;;;;;298.63;39.17;;;5.80;99.90;;;;;;5028950;28;20593;-77
2023/02/23 04:54:03;;;;;;;344.67;39.85;;;5.80;99.90;;;;;;5034186;28;20024;-77
2023/02/23 04:56:29;;;;;;;305.13;40.20;;;5.80;99.90;;;;;;5032440;28;20037;-77
2023/02/23 04:58:54;;;;;;;440.38;46.50;;;5.90;99.90;;;;;;5009162;28;20037;-77
2023/02/23 05:01:21;;;;;;;417.38;45.50;;;5.90;99.90;;;;;;5028956;28;20049;-77
2023/02/23 05:03:47;;;;;;;370.65;44.40;;;5.90;99.90;;;;;;5027198;28;20041;-77
2023/02/23 05:06:14;;;;;;;377.73;43.58;;;5.90;99.90;;;;;;5042625;28;20117;-77
2023/02/23 05:08:39;;;;;;;383.35;45.38;;;5.80;99.90;;;;;;5033997;28;20438;-77
2023/02/23 05:11:06;;;;;;;320.08;42.03;;;5.90;99.90;;;;;;5025050;28;20046;-77
2023/02/23 05:13:32;;;;;;;392.52;45.45;;;5.90;99.90;;;;;;5029859;28;20370;-77
2023/02/23 05:15:57;;;;;;;353.80;42.92;;;5.90;99.90;;;;;;5026496;28;20040;-77
2023/02/23 05:18:24;;;;;;;339.35;44.55;;;5.90;99.90;;;;;;5031750;28;20184;-77
2023/02/23 05:20:50;;;;;;;451.13;48.47;;;5.90;99.90;;;;;;5029886;28;20029;-77
2023/02/23 05:23:15;;;;;;;388.85;46.53;;;6.00;99.90;;;;;;5026972;28;20048;-77
2023/02/23 05:25:41;;;;;;;416.38;46.88;;;6.00;99.90;;;;;;5043178;28;20029;-77
2023/02/23 05:28:07;;;;;;;394.50;45.78;;;6.00;99.90;;;;;;5021888;28;20456;-74
2023/02/23 05:30:32;;;;;;;405.08;48.15;;;6.00;99.90;;;;;;4999822;28;20053;-73
2023/02/23 05:32:58;;;;;;;398.95;47.38;;;6.00;99.90;;;;;;5007819;28;20033;-74
2023/02/23 05:35:23;;;;;;;398.67;47.35;;;6.00;99.90;;;;;;5009254;28;20061;-74
2023/02/23 05:37:49;;;;;;;406.55;49.05;;;6.00;99.90;;;;;;5004855;28;20109;-73
2023/02/23 05:40:15;;;;;;;406.98;47.20;;;6.00;99.90;;;;;;5016807;28;20496;-74
2023/02/23 05:42:40;;;;;;;398.63;46.80;;;6.00;99.90;;;;;;4996349;28;20038;-74
2023/02/23 05:45:06;;;;;;;299.42;43.10;;;6.00;99.90;;;;;;5007226;28;20581;-74
2023/02/23 05:47:37;;;;;;;308.17;44.65;;;6.00;99.90;;;;;;5002579;28;20038;-74
2023/02/23 05:50:04;;;;;;;335.27;44.90;;;6.00;99.90;;;;;;5010058;28;20397;-74
2023/02/23 05:52:29;;;;;;;260.27;44.17;;;6.00;99.90;;;;;;5009063;28;20045;-74
2023/02/23 05:54:55;;;;;;;231.55;44.47;;;6.00;99.90;;;;;;5007617;28;20038;-74
2023/02/23 05:57:21;;;;;;;195.70;43.40;;;6.00;99.90;;;;;;5016938;28;20030;-74
2023/02/23 05:59:46;;;;;;;224.38;44.25;;;6.10;99.90;;;;;;5006017;28;20044;-74
2023/02/23 06:02:12;;;;;;;191.35;44.72;;;6.10;99.90;;;;;;5004733;28;20797;-74
2023/02/23 06:04:37;;;;;;;201.30;44.85;;;6.10;99.90;;;;;;5010571;28;20030;-74
2023/02/23 06:07:03;;;;;;;183.20;44.30;;;6.10;99.90;;;;;;5015941;28;20034;-74
2023/02/23 06:09:28;;;;;;;188.32;44.10;;;6.10;99.90;;;;;;5018503;28;20546;-74
2023/02/23 06:11:54;;;;;;;177.45;43.50;;;6.10;99.90;;;;;;5015944;28;20497;-74
2023/02/23 06:14:19;;;;;;;184.45;43.88;;;6.20;99.90;;;;;;5014805;28;20042;-74
2023/02/23 06:16:47;;;;;;;162.30;45.25;;;6.20;99.90;;;;;;5013577;28;20030;-74
2023/02/23 06:19:13;;;;;;;171.60;44.53;;;6.20;99.90;;;;;;5010392;28;20092;-73
2023/02/23 06:21:38;;;;;;;165.65;43.28;;;6.30;99.90;;;;;;5015150;28;20034;-73
2023/02/23 06:24:04;;;;;;;173.95;43.47;;;6.20;99.90;;;;;;5013543;28;20084;-73
2023/02/23 06:26:31;;;;;;;175.48;45.28;;;6.30;99.90;;;;;;5009239;28;20122;-73
2023/02/23 06:28:56;;;;;;;186.32;44.90;;;6.30;99.90;;;;;;5010164;28;20097;-73
2023/02/23 06:31:22;;;;;;;159.23;43.60;;;6.30;99.90;;;;;;5047100;28;20033;-74
2023/02/23 06:33:47;;;;;;;171.68;45.50;;;6.30;99.90;;;;;;5047230;28;20038;-74
2023/02/23 06:36:13;;;;;;;182.68;45.97;;;6.30;99.90;;;;;;5014876;28;20033;-73
2023/02/23 06:38:38;;;;;;;181.65;44.53;;;6.30;99.90;;;;;;5025241;28;20467;-74
2023/02/23 06:41:11;;;;;;;180.43;44.45;;;6.40;99.90;;;;;;5033372;28;20057;-74
2023/02/23 06:43:36;;;;;;;192.48;45.70;;;6.40;99.90;;;;;;5033634;28;20060;-73
2023/02/23 06:46:03;;;;;;;190.88;44.60;;;6.40;99.90;;;;;;5029502;28;20560;-74
2023/02/23 06:48:28;;;;;;;177.63;44.80;;;6.40;99.90;;;;;;5010720;28;20113;-73
2023/02/23 06:50:56;;;;;;;206.98;44.95;;;6.40;99.90;;;;;;5044986;28;20116;-74
2023/02/23 06:53:23;;;;;;;174.75;43.72;;;6.40;99.90;;;;;;5031336;28;20037;-74
2023/02/23 06:55:49;;;;;;;191.45;45.05;;;6.50;99.90;;;;;;5043878;28;20036;-74
2023/02/23 06:58:14;;;;;;;167.18;44.22;;;6.50;99.90;;;;;;5040701;28;20042;-74
2023/02/23 07:00:42;;;;;;;163.45;43.85;;;6.50;99.90;;;;;;5042055;28;20111;-74
2023/02/23 07:03:08;;;;;;;150.73;42.88;;;6.50;99.90;;;;;;5025362;28;20064;-73
2023/02/23 07:05:34;;;;;;;152.13;42.33;;;6.50;99.90;;;;;;5043051;28;20547;-73
2023/02/23 07:07:59;;;;;;;158.98;43.38;;;6.60;99.90;;;;;;5025876;28;20060;-74
2023/02/23 07:10:25;;;;;;;148.40;42.97;;;6.60;99.90;;;;;;5018152;28;20390;-73
2023/02/23 07:12:52;;;;;;;169.05;42.15;;;6.60;99.90;;;;;;5036263;28;20063;-74
2023/02/23 07:15:19;;;;;;;181.60;44.67;;;6.60;99.90;;;;;;5034577;28;20088;-74
2023/02/23 07:17:47;;;;;;;170.93;44.17;;;6.60;99.90;;;;;;5038718;28;20021;-74
2023/02/23 07:20:13;;;;;;;178.23;43.67;;;6.60;99.90;;;;;;5020610;28;20424;-74
2023/02/23 07:22:39;;;;;;;166.27;44.58;;;6.70;99.90;;;;;;5037274;28;20027;-74
2023/02/23 07:25:05;;;;;;;157.48;44.13;;;6.70;99.90;;;;;;5043861;28;20033;-73
2023/02/23 07:27:30;;;;;;;167.38;45.50;;;6.70;99.90;;;;;;5039122;28;20029;-73
2023/02/23 07:29:56;;;;;;;163.35;44.38;;;6.80;99.90;;;;;;5044788;28;20661;-73
2023/02/23 07:32:21;;;;;;;168.65;44.08;;;6.80;99.90;;;;;;5025365;28;20032;-73
2023/02/23 07:34:47;;;;;;;160.85;43.72;;;6.80;99.90;;;;;;5047600;28;20050;-73
2023/02/23 07:37:12;;;;;;;143.88;43.35;;;6.80;99.90;;;;;;5039350;28;20033;-74
2023/02/23 07:39:38;;;;;;;166.40;41.45;;;6.80;99.90;;;;;;5041756;28;20469;-73
2023/02/23 07:42:03;;;;;;;131.38;39.95;;;6.80;99.90;;;;;;5042429;28;20762;-73
2023/02/23 07:44:29;;;;;;;147.38;41.65;;;6.90;99.90;;;;;;5035313;28;20045;-73
2023/02/23 07:46:54;;;;;;;149.10;40.83;;;6.90;99.90;;;;;;5031994;28;20041;-73
2023/02/23 07:49:20;;;;;;;142.98;40.17;;;6.90;99.90;;;;;;5039778;28;20045;-73
2023/02/23 07:51:45;;;;;;;120.25;37.58;;;6.90;99.90;;;;;;5031916;28;20620;-73
2023/02/23 07:54:11;;;;;;;118.35;39.80;;;6.90;99.90;;;;;;5031676;28;20112;-74
2023/02/23 07:56:36;;;;;;;108.82;36.30;;;6.90;99.90;;;;;;5031061;28;20038;-74
2023/02/23 07:59:02;;;;;;;111.00;38.17;;;6.90;99.90;;;;;;5034297;28;20092;-74
2023/02/23 08:01:28;;;;;;;107.15;36.15;;;6.90;99.90;;;;;;5034327;28;20048;-74
2023/02/23 08:03:53;;;;;;;94.88;32.58;;;7.00;99.90;;;;;;5012753;28;20021;-76
2023/02/23 08:06:19;;;;;;;94.43;32.13;;;7.00;99.90;;;;;;5042204;28;20057;-74
2023/02/23 08:08:45;;;;;;;89.78;31.60;;;7.00;99.90;;;;;;5034941;28;20356;-74
2023/02/23 08:11:11;;;;;;;84.25;30.75;;;7.00;99.90;;;;;;5015290;28;20467;-74
2023/02/23 08:13:38;;;;;;;80.93;30.60;;;7.00;99.90;;;;;;5042185;28;20385;-74
2023/02/23 08:16:04;;;;;;;79.82;28.77;;;7.00;99.90;;;;;;5033507;28;20038;-74
2023/02/23 08:18:29;;;;;;;85.13;29.70;;;7.00;99.90;;;;;;5012181;28;20037;-74
2023/02/23 08:20:59;;;;;;;91.75;30.83;;;7.00;99.90;;;;;;5036020;28;20040;-74
2023/02/23 08:23:25;;;;;;;86.88;30.13;;;7.00;99.90;;;;;;5041913;28;20458;-74
2023/02/23 08:25:52;;;;;;;89.18;30.75;;;7.00;99.90;;;;;;5042108;28;20036;-74
2023/02/23 08:28:18;;;;;;;91.57;32.35;;;7.00;99.90;;;;;;5023282;28;20026;-74
2023/02/23 08:30:43;;;;;;;104.88;33.78;;;7.00;99.90;;;;;;5027289;28;20366;-74
2023/02/23 08:33:09;;;;;;;103.90;33.08;;;7.00;99.90;;;;;;5030803;28;20059;-74
2023/02/23 08:35:34;;;;;;;92.05;32.80;;;7.00;99.90;;;;;;5037200;28;20075;-74
2023/02/23 08:38:00;;;;;;;104.80;34.17;;;7.00;99.90;;;;;;5045423;28;20063;-74
2023/02/23 08:40:25;;;;;;;114.75;35.33;;;7.00;99.90;;;;;;5037725;28;20100;-74
2023/02/23 08:42:51;;;;;;;108.07;35.47;;;7.00;99.90;;;;;;5029844;28;20029;-74
2023/02/23 08:45:17;;;;;;;107.00;34.47;;;7.00;99.90;;;;;;5039085;28;20101;-74
2023/02/23 08:47:43;;;;;;;109.90;33.65;;;7.00;99.90;;;;;;5035083;28;20136;-74
2023/02/23 08:50:09;;;;;;;117.18;35.90;;;7.00;99.90;;;;;;5041440;28;20108;-74
2023/02/23 08:52:36;;;;;;;114.43;35.22;;;7.00;99.90;;;;;;5031659;28;20034;-74
2023/02/23 08:55:02;;;;;;;114.30;35.05;;;7.00;99.90;;;;;;5037206;28;20469;-74
2023/02/23 08:57:27;;;;;;;115.07;34.83;;;7.00;99.90;;;;;;5042655;28;20465;-74
2023/02/23 08:59:53;;;;;;;108.00;34.50;;;7.00;99.90;;;;;;5032552;28;20026;-74
2023/02/23 09:02:19;;;;;;;108.15;36.08;;;7.00;99.90;;;;;;5028880;28;20478;-74
2023/02/23 09:04:45;;;;;;;130.30;36.53;;;7.00;99.90;;;;;;5038044;28;20025;-74
2023/02/23 09:07:16;;;;;;;119.00;34.97;;;7.00;99.90;;;;;;5049009;28;20044;-74
2023/02/23 09:09:42;;;;;;;122.22;35.83;;;7.00;99.90;;;;;;5029573;28;20512;-74
2023/02/23 09:12:07;;;;;;;119.15;33.33;;;7.00;99.90;;;;;;5027721;28;20112;-74
2023/02/23 09:14:33;;;;;;;122.07;35.08;;;7.10;99.90;;;;;;5035564;28;20481;-74
2023/02/23 09:16:58;;;;;;;132.63;36.58;;;7.10;99.90;;;;;;5032040;28;20033;-74
2023/02/23 09:19:26;;;;;;;112.60;34.70;;;7.10;99.90;;;;;;5041119;28;20037;-74
2023/02/23 09:21:52;;;;;;;112.75;33.55;;;7.10;99.90;;;;;;5040089;28;20103;-74
2023/02/23 09:24:20;;;;;;;104.50;34.58;;;7.10;99.90;;;;;;5031733;28;20061;-74
2023/02/23 09:26:46;;;;;;;112.28;33.47;;;7.10;99.90;;;;;;5027663;28;20472;-74
2023/02/23 09:29:11;;;;;;;120.50;33.60;;;7.10;99.90;;;;;;5039218;28;20080;-74
2023/02/23 09:31:37;;;;;;;116.63;34.65;;;7.00;99.90;;;;;;5036241;28;20462;-74
2023/02/23 09:34:03;;;;;;;133.27;36.70;;;7.00;99.90;;;;;;5025419;28;20056;-74
2023/02/23 09:36:30;;;;;;;157.85;40.75;;;7.10;99.90;;;;;;5041538;28;20041;-74
2023/02/23 09:38:57;;;;;;;146.88;40.00;;;7.00;99.90;;;;;;5033615;28;20053;-74
2023/02/23 09:41:34;;;;;;;162.30;42.25;;;7.10;99.90;;;;;;5034070;28;20029;-74
2023/02/23 09:44:34;;;;;;;172.93;44.22;;;7.10;99.90;;;;;;5024967;28;20411;-74
2023/02/23 09:47:25;;;;;;;181.52;45.00;;;7.30;99.90;;;;;;4979127;28;20491;-74
2023/02/23 09:49:52;;;;;;;186.90;47.58;;;7.20;99.90;;;;;;5038949;28;20029;-74
2023/02/23 09:52:28;;;;;;;161.55;42.83;;;7.10;99.90;;;;;;5033042;28;20367;-74
2023/02/23 09:54:54;;;;;;;154.13;42.17;;;7.10;99.90;;;;;;5035964;28;20060;-74
2023/02/23 09:57:32;;;;;;;174.90;46.45;;;7.00;99.90;;;;;;5038974;28;20128;-74
2023/02/23 09:59:57;;;;;;;166.10;45.53;;;7.10;99.90;;;;;;5034915;28;20041;-74
2023/02/23 10:02:50;;;;;;;176.23;47.33;;;7.00;99.90;;;;;;5034089;28;20497;-74
2023/02/23 10:05:16;;;;;;;165.07;45.70;;;7.10;99.90;;;;;;5006127;28;20055;-74
2023/02/23 10:07:49;;;;;;;168.90;47.22;;;7.00;99.90;;;;;;5019425;28;20029;-74
2023/02/23 10:10:45;;;;;;;171.57;48.17;;;7.00;99.90;;;;;;5032301;28;20025;-74
2023/02/23 10:13:23;;;;;;;167.15;46.95;;;7.10;99.90;;;;;;5035635;28;20033;-74
2023/02/23 10:15:58;;;;;;;167.57;46.45;;;7.10;99.90;;;;;;5039709;28;20500;-74
2023/02/23 10:19:02;;;;;;;169.07;46.70;;;7.00;99.90;;;;;;5033993;28;20642;-74
2023/02/23 10:21:43;;;;;;;160.05;44.25;;;7.00;99.90;;;;;;4937061;29;20093;-74
2023/02/23 10:24:20;;;;;;;159.90;46.17;;;7.00;99.90;;;;;;5019586;28;20029;-74
2023/02/23 10:27:09;;;;;;;158.80;45.97;;;7.00;99.90;;;;;;5031217;28;20045;-74
2023/02/23 10:29:41;;;;;;;163.00;44.28;;;7.10;99.90;;;;;;5027424;28;20049;-74
2023/02/23 10:32:31;;;;;;;158.40;45.22;;;7.20;99.90;;;;;;5039532;28;20043;-74
2023/02/23 10:34:58;;;;;;;148.02;45.08;;;7.30;99.90;;;;;;5045797;28;20036;-74
2023/02/23 10:37:24;;;;;;;147.65;44.67;;;7.40;99.90;;;;;;5050469;28;20116;-74
2023/02/23 10:39:51;;;;;;;144.35;44.88;;;7.50;99.70;;;;;;5043810;28;20017;-74
2023/02/23 10:42:21;;;;;;;136.13;43.05;;;7.50;99.60;;;;;;5021784;28;20030;-74
2023/02/23 10:44:48;;;;;;;134.35;41.80;;;7.40;99.10;;;;;;5030420;28;20021;-74
2023/02/23 10:47:19;;;;;;;113.07;40.47;;;7.40;99.20;;;;;;5033052;28;20030;-74
2023/02/23 10:49:47;;;;;;;120.47;42.03;;;7.40;99.20;;;;;;5047362;28;20037;-75
2023/02/23 10:52:33;;;;;;;121.82;42.63;;;7.50;99.30;;;;;;5038094;28;20037;-74
2023/02/23 10:55:03;;;;;;;114.88;38.65;;;7.50;99.40;;;;;;5040539;28;20040;-74
2023/02/23 10:57:31;;;;;;;110.78;38.85;;;7.40;99.20;;;;;;5030401;28;20040;-74
2023/02/23 11:00:08;;;;;;;116.05;39.42;;;7.30;99.00;;;;;;5033790;28;20041;-74
2023/02/23 11:02:37;;;;;;;121.25;39.90;;;7.50;99.30;;;;;;5036937;28;20462;-75
2023/02/23 11:05:04;;;;;;;107.85;37.75;;;7.60;99.10;;;;;;5044078;28;20453;-74
2023/02/23 11:07:32;;;;;;;101.80;34.38;;;7.50;99.00;;;;;;5028707;28;20041;-74
2023/02/23 11:10:19;;;;;;;102.40;36.35;;;7.40;98.80;;;;;;5020348;28;20046;-74
2023/02/23 11:12:45;;;;;;;95.38;34.20;;;7.50;98.80;;;;;;5040092;28;20044;-73
2023/02/23 11:15:25;;;;;;;100.75;37.05;;;7.40;98.50;;;;;;5037953;28;20025;-74
2023/02/23 11:18:04;;;;;;;112.13;37.27;;;7.30;98.60;;;;;;5037557;28;20041;-75
2023/02/23 11:20:40;;;;;;;96.22;34.17;;;7.30;98.70;;;;;;5028213;28;20040;-74
2023/02/23 11:23:27;;;;;;;99.78;34.88;;;7.30;98.70;;;;;;5034108;28;20030;-74
2023/02/23 11:25:55;;;;;;;107.80;35.45;;;7.30;98.80;;;;;;5028778;28;20040;-74
2023/02/23 11:28:32;;;;;;;100.68;34.55;;;7.20;98.70;;;;;;5023415;28;20187;-74
2023/02/23 11:31:15;;;;;;;94.90;35.03;;;7.20;98.70;;;;;;5016073;28;20125;-75
2023/02/23 11:33:41;;;;;;;102.20;35.10;;;7.20;98.70;;;;;;5016875;28;20058;-74
2023/02/23 11:36:29;;;;;;;112.38;35.05;;;7.20;98.70;;;;;;5017984;28;20057;-75
2023/02/23 11:39:08;;;;;;;100.15;34.15;;;7.30;98.80;;;;;;5024649;28;20021;-74
2023/02/23 11:41:35;;;;;;;103.97;32.00;;;7.20;98.80;;;;;;5016007;28;20029;-74
2023/02/23 11:44:03;;;;;;;94.38;33.17;;;7.30;98.80;;;;;;5015413;28;20034;-75
2023/02/23 11:46:30;;;;;;;98.28;32.75;;;7.20;98.70;;;;;;5020652;28;20108;-74
2023/02/23 11:49:05;;;;;;;90.95;31.25;;;7.20;98.70;;;;;;5015507;28;20467;-74
2023/02/23 11:51:38;;;;;;;102.50;34.25;;;7.20;98.80;;;;;;5001635;28;20046;-74
2023/02/23 11:54:06;;;;;;;91.50;32.05;;;7.20;98.80;;;;;;4996952;28;20041;-74
2023/02/23 11:56:33;;;;;;;106.47;31.50;;;7.20;98.90;;;;;;5018270;28;20061;-74
2023/02/23 11:59:07;;;;;;;101.05;33.20;;;7.10;98.80;;;;;;5019970;28;20088;-74
2023/02/23 12:01:49;;;;;;;84.45;33.33;;;7.10;98.90;;;;;;5013403;28;20108;-74
2023/02/23 12:04:36;;;;;;;89.10;31.52;;;7.10;98.90;;;;;;5017898;28;20490;-74
2023/02/23 12:07:42;;;;;;;98.60;31.92;;;7.10;99.00;;;;;;5013914;28;20033;-74
2023/02/23 12:10:29;;;;;;;83.43;27.80;;;7.10;99.10;;;;;;4948362;28;20043;-74
2023/02/23 12:13:03;;;;;;;104.30;31.52;;;7.10;99.00;;;;;;5007105;28;20053;-74
2023/02/23 12:15:52;;;;;;;104.07;32.58;;;7.10;99.30;;;;;;5002575;28;20360;-74
2023/02/23 12:18:32;;;;;;;102.07;30.65;;;7.10;99.30;;;;;;5011533;28;20343;-74
2023/02/23 12:21:08;;;;;;;111.93;33.10;;;7.10;99.40;;;;;;5009699;28;20148;-74
2023/02/23 12:23:36;;;;;;;124.95;34.25;;;7.10;99.50;;;;;;4999685;28;20104;-74
2023/02/23 12:26:22;;;;;;;136.88;39.30;;;6.90;99.50;;;;;;4996138;28;20584;-74
2023/02/23 12:28:57;;;;;;;130.48;35.50;;;6.70;99.30;;;;;;5005440;28;20053;-74
2023/02/23 12:31:46;;;;;;;131.05;37.47;;;6.70;99.50;;;;;;5019998;28;20371;-74
2023/02/23 12:34:23;;;;;;;132.73;38.22;;;6.60;99.50;;;;;;5024376;28;20033;-73
2023/02/23 12:36:59;;;;;;;142.43;37.25;;;6.50;99.20;;;;;;5021207;28;20052;-74
2023/02/23 12:39:37;;;;;;;127.00;35.63;;;6.50;99.30;;;;;;5012678;28;20034;-75
2023/02/23 12:42:24;;;;;;;133.75;37.17;;;6.50;99.40;;;;;;5023420;28;20199;-74
2023/02/23 12:44:56;;;;;;;132.68;36.45;;;6.50;99.30;;;;;;5014356;28;20112;-75
2023/02/23 12:47:50;;;;;;;136.65;37.15;;;6.50;99.20;;;;;;5009943;28;20041;-74
2023/02/23 12:50:27;;;;;;;123.80;33.17;;;6.50;99.20;;;;;;5008323;28;20427;-75
2023/02/23 12:53:19;;;;;;;138.18;38.05;;;6.40;98.90;;;;;;5019127;28;20026;-75
2023/02/23 12:56:13;;;;;;;131.68;35.25;;;6.50;99.10;;;;;;4983634;28;20483;-75
2023/02/23 12:58:55;;;;;;;134.15;35.22;;;6.50;99.10;;;;;;5005832;28;20093;-74
2023/02/23 13:01:37;;;;;;;152.65;38.15;;;6.40;99.00;;;;;;5003115;28;20530;-75
2023/02/23 13:04:32;;;;;;;125.25;33.95;;;6.50;99.10;;;;;;5027301;28;20037;-74
2023/02/23 13:07:07;;;;;;;128.80;35.05;;;6.50;99.10;;;;;;5019655;28;20053;-75
2023/02/23 13:09:52;;;;;;;124.43;35.90;;;6.60;99.00;;;;;;5008316;28;20049;-75
2023/02/23 13:12:39;;;;;;;137.70;37.17;;;6.60;98.90;;;;;;5018903;28;20068;-75
2023/02/23 13:15:17;;;;;;;121.05;35.83;;;6.60;98.70;;;;;;5016531;28;20042;-75
2023/02/23 13:17:53;;;;;;;119.50;34.60;;;6.70;98.70;;;;;;5008818;28;20081;-74
2023/02/23 13:20:27;;;;;;;132.43;35.45;;;6.70;98.60;;;;;;5010806;28;20033;-75
2023/02/23 13:23:19;;;;;;;115.20;32.92;;;6.80;98.60;;;;;;5010223;28;20026;-74
2023/02/23 13:26:09;;;;;;;119.45;34.78;;;6.80;98.50;;;;;;5029295;28;20026;-74
2023/02/23 13:28:55;;;;;;;116.35;34.13;;;6.90;98.40;;;;;;5013879;28;20050;-74
2023/02/23 13:31:32;;;;;;;106.78;33.28;;;6.90;98.20;;;;;;5005899;28;20109;-75
2023/02/23 13:33:59;;;;;;;107.05;31.85;;;6.90;98.20;;;;;;5020194;28;20037;-74
2023/02/23 13:36:28;;;;;;;109.93;35.28;;;6.90;98.00;;;;;;5015469;28;20038;-74
2023/02/23 13:39:21;;;;;;;109.70;34.88;;;6.90;98.00;;;;;;5016663;28;20080;-76
2023/02/23 13:42:04;;;;;;;103.43;32.67;;;7.00;97.90;;;;;;5011472;28;20033;-75
2023/02/23 13:45:00;;;;;;;109.20;34.40;;;7.00;97.80;;;;;;5014100;28;20107;-75
2023/02/23 13:47:47;;;;;;;104.22;32.17;;;7.10;97.70;;;;;;5008752;28;20471;-75
2023/02/23 13:50:23;;;;;;;101.35;34.67;;;7.10;97.50;;;;;;5021359;28;20042;-75
2023/02/23 13:52:54;;;;;;;106.68;33.50;;;7.10;97.20;;;;;;5005604;28;20031;-75
2023/02/23 13:55:25;;;;;;;95.88;34.05;;;7.10;97.00;;;;;;5023607;28;22000;-76
2023/02/23 13:58:03;;;;;;;105.03;33.72;;;7.10;97.00;;;;;;5010352;28;20030;-75
2023/02/23 14:00:30;;;;;;;94.63;33.33;;;7.20;97.00;;;;;;5017387;28;20088;-75
2023/02/23 14:02:56;;;;;;;93.55;33.90;;;7.20;96.70;;;;;;5014756;28;20054;-75
2023/02/23 14:05:27;;;;;;;96.50;32.97;;;7.10;96.60;;;;;;5008501;28;20076;-75
2023/02/23 14:08:03;;;;;;;88.18;31.75;;;7.10;96.70;;;;;;5014728;28;20386;-75
2023/02/23 14:10:40;;;;;;;89.20;29.85;;;7.20;97.00;;;;;;5012163;28;20037;-75
2023/02/23 14:13:05;;;;;;;93.90;31.52;;;7.10;96.90;;;;;;5032057;28;20108;-76